createdAt,value
2018-03-11T00:01:08.384Z,88.55
2018-03-11T00:03:36.826Z,88.44
2018-03-11T00:06:05.092Z,88.42
2018-03-11T00:08:33.344Z,88.30
2018-03-11T00:11:02.370Z,88.25
2018-03-11T00:13:30.624Z,88.53
2018-03-11T00:15:59.671Z,89.22
2018-03-11T00:18:27.922Z,89.22
2018-03-11T00:20:56.182Z,89.74
2018-03-11T00:23:24.428Z,89.80
2018-03-11T00:25:53.387Z,90.19
2018-03-11T00:28:21.637Z,90.27
2018-03-11T00:30:49.895Z,90.30
2018-03-11T00:33:18.144Z,90.16
2018-03-11T00:35:46.399Z,90.29
2018-03-11T00:38:14.651Z,90.45
2018-03-11T00:40:42.903Z,90.62
2018-03-11T00:43:11.143Z,90.89
2018-03-11T00:45:39.386Z,91.43
2018-03-11T00:48:07.641Z,91.60
2018-03-11T00:50:35.884Z,91.99
2018-03-11T00:53:04.911Z,92.31
2018-03-11T00:55:33.160Z,92.00
2018-03-11T00:58:02.184Z,91.90
2018-03-11T01:00:30.434Z,92.49
2018-03-11T01:02:59.456Z,92.02
2018-03-11T01:05:27.704Z,93.55
2018-03-11T01:07:55.960Z,92.99
2018-03-11T01:10:24.977Z,92.27
2018-03-11T01:12:53.245Z,91.59
2018-03-11T01:15:22.251Z,92.09
2018-03-11T01:17:50.523Z,91.57
2018-03-11T01:20:18.768Z,91.90
2018-03-11T01:22:47.024Z,91.73
2018-03-11T01:25:15.288Z,91.59
2018-03-11T01:27:43.544Z,91.57
2018-03-11T01:30:11.797Z,92.05
2018-03-11T01:32:40.061Z,92.53
2018-03-11T01:35:09.084Z,92.70
2018-03-11T01:37:37.338Z,92.98
2018-03-11T01:40:05.586Z,93.11
2018-03-11T01:42:33.826Z,93.04
2018-03-11T01:45:02.847Z,93.12
2018-03-11T01:47:31.090Z,93.25
2018-03-11T01:49:59.371Z,93.81
2018-03-11T01:52:28.380Z,93.92
2018-03-11T01:54:56.635Z,94.50
2018-03-11T01:57:24.892Z,94.36
2018-03-11T01:59:53.140Z,94.28
2018-03-11T02:02:22.156Z,94.41
2018-03-11T02:04:50.412Z,94.36
2018-03-11T02:07:19.432Z,94.21
2018-03-11T02:09:47.686Z,94.21
2018-03-11T02:12:15.942Z,94.03
2018-03-11T02:14:44.970Z,94.13
2018-03-11T02:17:13.213Z,94.16
2018-03-11T02:19:42.230Z,94.42
2018-03-11T02:22:10.503Z,94.27
2018-03-11T02:24:39.517Z,93.36
2018-03-11T02:27:07.768Z,94.29
2018-03-11T02:29:36.032Z,94.71
2018-03-11T02:32:05.062Z,94.97
2018-03-11T02:34:33.311Z,94.85
2018-03-11T02:37:02.338Z,94.95
2018-03-11T02:39:30.590Z,94.56
2018-03-11T02:41:58.841Z,94.90
2018-03-11T02:44:27.854Z,94.73
2018-03-11T02:46:56.099Z,94.93
2018-03-11T02:49:24.358Z,94.84
2018-03-11T02:51:52.610Z,94.67
2018-03-11T02:54:20.869Z,94.66
2018-03-11T02:56:49.120Z,94.84
2018-03-11T02:59:18.152Z,95.20
2018-03-11T03:01:46.408Z,94.90
2018-03-11T03:04:14.665Z,94.80
2018-03-11T03:06:43.676Z,95.03
2018-03-11T03:09:11.976Z,94.48
2018-03-11T03:11:40.231Z,94.15
2018-03-11T03:14:08.496Z,94.09
2018-03-11T03:16:36.744Z,94.28
2018-03-11T03:19:05.002Z,94.24
2018-03-11T03:21:33.280Z,94.13
2018-03-11T03:24:01.549Z,93.99
2018-03-11T03:26:29.804Z,94.23
2018-03-11T03:28:58.083Z,94.43
2018-03-11T03:31:26.345Z,94.52
2018-03-11T03:33:54.602Z,94.59
2018-03-11T03:36:22.862Z,94.58
2018-03-11T03:38:51.881Z,94.82
2018-03-11T03:41:20.136Z,94.79
2018-03-11T03:43:49.155Z,94.65
2018-03-11T03:46:17.419Z,94.43
2018-03-11T03:48:45.664Z,94.59
2018-03-11T03:51:14.697Z,94.84
2018-03-11T03:53:42.974Z,94.86
2018-03-11T03:56:11.236Z,94.64
2018-03-11T03:58:39.490Z,94.56
2018-03-11T04:01:08.510Z,94.45
2018-03-11T04:03:36.766Z,94.26
2018-03-11T04:06:05.792Z,94.23
2018-03-11T04:08:34.052Z,94.92
2018-03-11T04:11:02.318Z,95.24
2018-03-11T04:13:31.341Z,94.97
2018-03-11T04:15:59.612Z,95.05
2018-03-11T04:18:27.879Z,95.35
2018-03-11T04:20:56.135Z,95.12
2018-03-11T04:23:25.168Z,95.50
2018-03-11T04:25:54.151Z,95.41
2018-03-11T04:28:22.418Z,95.48
2018-03-11T04:30:50.661Z,95.35
2018-03-11T04:33:19.692Z,95.20
2018-03-11T04:35:47.937Z,95.06
2018-03-11T04:38:16.973Z,95.14
2018-03-11T04:40:45.218Z,95.17
2018-03-11T04:43:13.476Z,95.15
2018-03-11T04:45:42.494Z,95.13
2018-03-11T04:48:10.761Z,94.83
2018-03-11T04:50:39.020Z,94.59
2018-03-11T04:53:08.055Z,94.54
2018-03-11T04:55:36.303Z,94.59
2018-03-11T04:58:04.562Z,94.44
2018-03-11T05:00:33.584Z,94.35
2018-03-11T05:03:01.836Z,93.93
2018-03-11T05:05:30.850Z,93.57
2018-03-11T05:07:59.099Z,93.27
2018-03-11T05:10:28.128Z,93.37
2018-03-11T05:12:56.390Z,93.56
2018-03-11T05:15:24.649Z,93.82
2018-03-11T05:17:53.670Z,94.16
2018-03-11T05:20:21.919Z,94.49
2018-03-11T05:22:50.932Z,94.35
2018-03-11T05:25:19.187Z,94.24
2018-03-11T05:27:48.208Z,93.85
2018-03-11T05:30:16.464Z,93.96
2018-03-11T05:32:44.724Z,94.43
2018-03-11T05:35:13.748Z,94.57
2018-03-11T05:37:42.003Z,94.68
2018-03-11T05:40:11.021Z,94.68
2018-03-11T05:42:39.272Z,94.25
2018-03-11T05:45:08.288Z,94.17
2018-03-11T05:47:36.533Z,94.37
2018-03-11T05:50:05.565Z,94.37
2018-03-11T05:52:33.811Z,94.36
2018-03-11T05:55:02.848Z,94.21
2018-03-11T05:57:31.097Z,93.92
2018-03-11T05:59:59.351Z,94.10
2018-03-11T06:02:28.372Z,94.36
2018-03-11T06:04:56.610Z,94.61
2018-03-11T06:07:25.634Z,94.63
2018-03-11T06:09:53.896Z,95.03
2018-03-11T06:12:22.157Z,94.91
2018-03-11T06:14:51.168Z,94.49
2018-03-11T06:17:19.424Z,94.26
2018-03-11T06:19:48.437Z,94.30
2018-03-11T06:22:16.697Z,94.35
2018-03-11T06:24:45.714Z,94.15
2018-03-11T06:27:13.973Z,93.98
2018-03-11T06:29:42.994Z,93.78
2018-03-11T06:32:11.251Z,94.32
2018-03-11T06:34:40.268Z,94.08
2018-03-11T06:37:08.538Z,93.86
2018-03-11T06:39:36.780Z,93.61
2018-03-11T06:42:05.806Z,93.66
2018-03-11T06:44:34.042Z,93.84
2018-03-11T06:47:03.059Z,93.48
2018-03-11T06:49:31.307Z,93.02
2018-03-11T06:51:59.561Z,93.08
2018-03-11T06:54:27.797Z,92.96
2018-03-11T06:56:56.055Z,92.98
2018-03-11T06:59:24.309Z,92.61
2018-03-11T07:01:52.555Z,92.86
2018-03-11T07:04:20.813Z,92.75
2018-03-11T07:06:49.061Z,92.57
2018-03-11T07:09:17.309Z,92.03
2018-03-11T07:11:46.330Z,92.40
2018-03-11T07:14:14.578Z,92.44
2018-03-11T07:16:43.598Z,92.17
2018-03-11T07:19:11.884Z,91.65
2018-03-11T07:21:40.134Z,91.67
2018-03-11T07:24:09.148Z,91.44
2018-03-11T07:26:37.393Z,91.17
2018-03-11T07:29:06.420Z,91.16
2018-03-11T07:31:34.667Z,91.17
2018-03-11T07:34:03.698Z,90.57
2018-03-11T07:36:31.941Z,90.86
2018-03-11T07:39:00.963Z,91.20
2018-03-11T07:41:29.219Z,90.87
2018-03-11T07:43:57.472Z,91.16
2018-03-11T07:46:25.726Z,89.95
2018-03-11T07:48:53.987Z,89.38
2018-03-11T07:51:22.229Z,89.42
2018-03-11T07:53:50.485Z,89.17
2018-03-11T07:56:19.510Z,89.81
2018-03-11T07:58:47.749Z,89.69
2018-03-11T08:01:16.005Z,90.23
2018-03-11T08:03:44.258Z,89.55
2018-03-11T08:06:12.511Z,88.36
2018-03-11T08:08:40.756Z,88.33
2018-03-11T08:11:09.779Z,88.57
2018-03-11T08:13:38.021Z,87.95
2018-03-11T08:16:07.044Z,86.89
2018-03-11T08:18:35.287Z,84.94
2018-03-11T08:21:04.311Z,85.03
2018-03-11T08:23:32.555Z,84.26
2018-03-11T08:26:01.582Z,83.66
2018-03-11T08:28:29.826Z,82.85
2018-03-11T08:30:58.852Z,82.05
2018-03-11T08:33:27.107Z,82.48
2018-03-11T08:35:55.365Z,82.10
2018-03-11T08:38:24.390Z,82.04
2018-03-11T08:40:52.651Z,81.99
2018-03-11T08:43:20.902Z,81.42
2018-03-11T08:45:49.929Z,81.84
2018-03-11T08:48:18.188Z,81.80
2018-03-11T08:50:47.222Z,80.34
2018-03-11T08:53:15.475Z,80.69
2018-03-11T08:55:43.753Z,79.72
2018-03-11T08:58:12.002Z,79.34
2018-03-11T09:00:41.033Z,79.01
2018-03-11T09:03:09.292Z,78.75
2018-03-11T09:05:37.549Z,78.09
2018-03-11T09:08:06.579Z,77.49
2018-03-11T09:10:34.854Z,77.71
2018-03-11T09:13:03.101Z,77.90
2018-03-11T09:15:31.365Z,77.09
2018-03-11T09:18:00.399Z,78.16
2018-03-11T09:20:28.660Z,78.02
2018-03-11T09:22:57.057Z,77.38
2018-03-11T09:25:25.323Z,77.76
2018-03-11T09:27:53.589Z,77.59
2018-03-11T09:30:21.839Z,75.26
2018-03-11T09:32:50.862Z,75.57
2018-03-11T09:35:19.120Z,73.98
2018-03-11T09:37:48.149Z,72.21
2018-03-11T09:40:16.455Z,73.50
2018-03-11T09:42:44.717Z,72.17
2018-03-11T09:45:12.983Z,72.30
2018-03-11T09:47:41.233Z,70.73
2018-03-11T09:50:09.489Z,70.19
2018-03-11T09:52:38.508Z,72.16
2018-03-11T09:55:06.776Z,70.46
2018-03-11T09:57:35.027Z,70.10
2018-03-11T10:00:04.056Z,69.98
2018-03-11T10:02:32.302Z,69.64
2018-03-11T10:05:01.323Z,69.53
2018-03-11T10:07:29.578Z,70.54
2018-03-11T10:09:58.610Z,70.19
2018-03-11T10:12:26.861Z,68.95
2018-03-11T10:14:55.119Z,68.08
2018-03-11T10:17:24.140Z,67.20
2018-03-11T10:19:52.394Z,67.22
2018-03-11T10:22:20.710Z,67.56
2018-03-11T10:24:48.964Z,66.95
2018-03-11T10:27:17.292Z,67.08
2018-03-11T10:29:45.503Z,65.98
2018-03-11T10:32:13.866Z,65.90
2018-03-11T10:34:42.874Z,63.71
2018-03-11T10:37:11.238Z,64.23
2018-03-11T10:39:40.421Z,62.57
2018-03-11T10:42:09.446Z,61.94
2018-03-11T10:44:37.844Z,61.34
2018-03-11T10:47:06.169Z,62.71
2018-03-11T10:49:34.482Z,62.86
2018-03-11T10:52:02.822Z,62.74
2018-03-11T10:54:31.176Z,62.32
2018-03-11T10:56:59.449Z,62.97
2018-03-11T10:59:27.762Z,62.67
2018-03-11T11:02:01.660Z,63.17
2018-03-11T11:07:31.414Z,59.04
2018-03-11T11:10:00.496Z,57.59
2018-03-11T11:12:29.572Z,61.06
2018-03-11T11:14:57.931Z,59.63
2018-03-11T11:17:26.258Z,60.00
2018-03-11T11:19:54.563Z,60.42
2018-03-11T11:22:22.904Z,60.45
2018-03-11T11:24:51.961Z,58.76
2018-03-11T11:27:20.270Z,58.16
2018-03-11T11:29:48.561Z,60.83
2018-03-11T11:32:16.866Z,59.24
2018-03-11T11:34:45.176Z,59.58
2018-03-11T11:37:13.479Z,60.42
2018-03-11T11:39:42.532Z,61.06
2018-03-11T11:42:10.826Z,59.70
2018-03-11T11:44:39.126Z,58.64
2018-03-11T11:47:08.205Z,58.21
2018-03-11T11:49:36.536Z,58.78
2018-03-11T11:52:04.885Z,58.65
2018-03-11T11:54:33.989Z,57.20
2018-03-11T11:57:02.290Z,57.46
2018-03-11T11:59:30.626Z,54.88
2018-03-11T12:01:59.701Z,53.23
2018-03-11T12:04:28.031Z,56.60
2018-03-11T12:06:56.362Z,52.04
2018-03-11T12:09:24.696Z,52.96
2018-03-11T12:11:53.007Z,54.48
2018-03-11T12:14:21.322Z,53.41
2018-03-11T12:16:49.640Z,54.54
2018-03-11T12:19:17.954Z,53.54
2018-03-11T12:21:47.030Z,53.51
2018-03-11T12:24:15.334Z,55.04
2018-03-11T12:26:44.414Z,52.56
2018-03-11T12:29:12.702Z,52.48
2018-03-11T12:31:41.782Z,54.82
2018-03-11T12:34:10.859Z,54.59
2018-03-11T12:36:39.146Z,52.32
2018-03-11T12:39:07.454Z,51.26
2018-03-11T12:41:35.748Z,50.56
2018-03-11T12:44:04.068Z,50.87
2018-03-11T12:46:32.380Z,51.10
2018-03-11T12:49:01.434Z,49.51
2018-03-11T12:51:29.756Z,48.32
2018-03-11T12:53:58.072Z,50.91
2018-03-11T12:56:26.371Z,49.92
2018-03-11T12:58:54.690Z,47.87
2018-03-11T13:01:22.987Z,48.31
2018-03-11T13:03:51.289Z,46.42
2018-03-11T13:06:19.583Z,43.38
2018-03-11T13:08:47.898Z,45.29
2018-03-11T13:11:16.203Z,46.11
2018-03-11T13:13:44.489Z,46.38
2018-03-11T13:16:12.813Z,43.80
2018-03-11T13:18:41.860Z,48.37
2018-03-11T13:21:11.959Z,46.50
2018-03-11T13:23:40.266Z,46.60
2018-03-11T13:26:08.570Z,46.10
2018-03-11T13:28:47.412Z,46.94
2018-03-11T13:31:15.738Z,49.42
2018-03-11T13:34:01.855Z,48.84
2018-03-11T13:36:30.142Z,48.66
2018-03-11T13:39:16.858Z,48.29
2018-03-11T13:41:45.976Z,46.79
2018-03-11T13:44:15.599Z,46.40
2018-03-11T13:46:58.435Z,46.52
2018-03-11T13:49:26.691Z,47.44
2018-03-11T13:52:12.743Z,47.88
2018-03-11T13:54:40.991Z,48.34
2018-03-11T14:00:31.585Z,48.05
2018-03-11T14:03:00.609Z,48.99
2018-03-11T14:05:28.863Z,47.98
2018-03-11T14:07:57.145Z,47.04
2018-03-11T14:10:25.393Z,46.48
2018-03-11T14:12:53.633Z,46.72
2018-03-11T14:15:22.658Z,43.51
2018-03-11T14:17:50.896Z,39.54
2018-03-11T14:20:19.918Z,39.32
2018-03-11T14:22:48.172Z,37.07
2018-03-11T14:25:17.200Z,38.49
2018-03-11T14:27:45.443Z,36.97
2018-03-11T14:30:14.461Z,38.62
2018-03-11T14:32:42.712Z,37.23
2018-03-11T14:38:18.539Z,41.80
2018-03-11T14:40:46.860Z,42.45
2018-03-11T14:43:15.926Z,39.84
2018-03-11T14:45:44.247Z,39.46
2018-03-11T14:48:12.511Z,39.26
2018-03-11T14:50:41.574Z,39.73
2018-03-11T14:53:09.770Z,44.91
2018-03-11T14:55:38.816Z,45.28
2018-03-11T14:58:07.079Z,47.35
2018-03-11T15:00:35.549Z,49.93
2018-03-11T15:03:05.798Z,49.67
2018-03-11T15:05:34.201Z,49.49
2018-03-11T15:08:02.521Z,48.79
2018-03-11T15:10:30.893Z,48.95
2018-03-11T15:13:00.289Z,50.02
2018-03-11T15:15:29.333Z,51.39
2018-03-11T15:17:57.675Z,50.95
2018-03-11T15:20:26.730Z,50.89
2018-03-11T15:22:55.126Z,52.13
2018-03-11T15:25:24.210Z,52.40
2018-03-11T15:27:53.338Z,53.13
2018-03-11T15:30:21.646Z,52.36
2018-03-11T15:32:49.988Z,51.57
2018-03-11T15:35:18.385Z,52.41
2018-03-11T15:37:46.749Z,52.50
2018-03-11T15:40:16.283Z,53.00
2018-03-11T15:42:44.606Z,52.89
2018-03-11T15:45:13.715Z,52.96
2018-03-11T15:47:42.047Z,54.99
2018-03-11T15:50:10.377Z,53.89
2018-03-11T15:52:38.653Z,54.35
2018-03-11T15:55:06.904Z,53.68
2018-03-11T15:57:35.944Z,54.74
2018-03-11T16:00:04.196Z,54.62
2018-03-11T16:02:32.447Z,54.99
2018-03-11T16:05:00.707Z,55.17
2018-03-11T16:07:28.967Z,55.51
2018-03-11T16:09:57.221Z,57.30
2018-03-11T16:12:25.471Z,56.71
2018-03-11T16:14:53.723Z,56.72
2018-03-11T16:17:22.749Z,57.01
2018-03-11T16:19:51.011Z,57.86
2018-03-11T16:22:20.028Z,57.22
2018-03-11T16:24:48.276Z,57.81
2018-03-11T16:27:17.292Z,58.09
2018-03-11T16:29:45.550Z,57.87
2018-03-11T16:32:13.798Z,57.83
2018-03-11T16:34:42.043Z,57.93
2018-03-11T16:37:10.363Z,56.94
2018-03-11T16:39:39.393Z,60.31
2018-03-11T16:42:07.643Z,59.48
2018-03-11T16:44:36.659Z,59.19
2018-03-11T16:47:04.907Z,60.97
2018-03-11T16:49:33.921Z,60.00
2018-03-11T16:52:02.178Z,60.86
2018-03-11T16:54:31.204Z,62.04
2018-03-11T16:56:59.453Z,63.31
2018-03-11T16:59:27.701Z,64.09
2018-03-11T17:01:55.951Z,64.32
2018-03-11T17:04:24.201Z,64.44
2018-03-11T17:06:52.456Z,64.69
2018-03-11T17:09:22.809Z,65.37
2018-03-11T17:11:51.078Z,63.88
2018-03-11T17:14:19.332Z,64.10
2018-03-11T17:16:47.599Z,64.21
2018-03-11T17:19:16.667Z,64.47
2018-03-11T17:21:44.871Z,64.12
2018-03-11T17:24:13.117Z,64.46
2018-03-11T17:26:41.402Z,64.37
2018-03-11T17:29:09.642Z,64.48
2018-03-11T17:31:37.893Z,64.33
2018-03-11T17:34:06.159Z,64.42
2018-03-11T17:36:34.390Z,64.83
2018-03-11T17:39:02.649Z,64.95
2018-03-11T17:41:30.909Z,64.78
2018-03-11T17:43:59.174Z,65.05
2018-03-11T17:46:27.412Z,64.80
2018-03-11T17:48:56.426Z,66.00
2018-03-11T17:51:24.670Z,64.77
2018-03-11T17:53:53.706Z,64.94
2018-03-11T17:56:21.938Z,65.30
2018-03-11T17:58:50.204Z,65.18
2018-03-11T18:01:18.493Z,65.68
2018-03-11T18:03:46.707Z,65.93
2018-03-11T18:06:14.954Z,67.40
2018-03-11T18:08:43.994Z,68.20
2018-03-11T18:11:12.235Z,66.80
2018-03-11T18:13:40.482Z,66.48
2018-03-11T18:16:09.508Z,68.72
2018-03-11T18:18:37.778Z,68.12
2018-03-11T18:21:06.035Z,67.37
2018-03-11T18:23:35.065Z,67.60
2018-03-11T18:26:03.573Z,67.69
2018-03-11T18:28:31.917Z,68.38
2018-03-11T18:31:00.189Z,69.54
2018-03-11T18:33:28.453Z,70.46
2018-03-11T18:35:56.711Z,70.95
2018-03-11T18:38:25.722Z,71.08
2018-03-11T18:40:53.978Z,71.16
2018-03-11T18:43:22.990Z,70.38
2018-03-11T18:45:51.475Z,70.69
2018-03-11T18:48:19.728Z,70.91
2018-03-11T18:50:47.971Z,70.91
2018-03-11T18:53:16.232Z,71.38
2018-03-11T18:55:44.476Z,71.50
2018-03-11T18:58:12.730Z,71.93
2018-03-11T19:00:41.755Z,72.24
2018-03-11T19:03:10.717Z,72.42
2018-03-11T19:08:12.605Z,72.15
2018-03-11T19:10:40.867Z,72.39
2018-03-11T19:13:09.882Z,72.87
2018-03-11T19:15:38.153Z,73.58
2018-03-11T19:18:06.436Z,73.64
2018-03-11T19:20:34.699Z,72.96
2018-03-11T19:23:03.709Z,73.98
2018-03-11T19:25:31.967Z,73.80
2018-03-11T19:28:00.982Z,74.23
2018-03-11T19:30:29.234Z,74.81
2018-03-11T19:32:58.245Z,75.24
2018-03-11T19:35:26.506Z,75.91
2018-03-11T19:37:55.517Z,76.30
2018-03-11T19:40:23.804Z,76.83
2018-03-11T19:42:52.050Z,76.75
2018-03-11T19:45:21.071Z,76.69
2018-03-11T19:47:49.324Z,77.19
2018-03-11T19:50:18.341Z,77.64
2018-03-11T19:52:46.586Z,77.58
2018-03-11T19:55:15.601Z,77.65
2018-03-11T19:57:43.846Z,77.95
2018-03-11T20:00:12.862Z,78.20
2018-03-11T20:02:41.103Z,78.65
2018-03-11T20:05:09.360Z,78.50
2018-03-11T20:07:37.608Z,78.30
2018-03-11T20:10:05.858Z,78.34
2018-03-11T20:12:34.114Z,78.36
2018-03-11T20:15:03.126Z,78.44
2018-03-11T20:17:31.382Z,78.64
2018-03-11T20:20:00.401Z,78.32
2018-03-11T20:22:28.658Z,78.08
2018-03-11T20:24:57.669Z,78.14
2018-03-11T20:27:25.925Z,78.65
2018-03-11T20:29:54.932Z,79.09
2018-03-11T20:32:23.190Z,78.92
2018-03-11T20:34:52.202Z,79.23
2018-03-11T20:37:20.453Z,79.54
2018-03-11T20:39:49.472Z,78.57
2018-03-11T20:42:17.732Z,79.09
2018-03-11T20:44:46.734Z,78.25
2018-03-11T20:47:14.990Z,78.55
2018-03-11T20:49:44.007Z,78.88
2018-03-11T20:52:12.262Z,79.16
2018-03-11T20:54:41.272Z,79.83
2018-03-11T20:57:09.534Z,79.90
2018-03-11T20:59:38.542Z,78.83
2018-03-11T21:02:06.797Z,79.31
2018-03-11T21:04:35.814Z,80.41
2018-03-11T21:07:04.074Z,80.13
2018-03-11T21:09:33.099Z,80.33
2018-03-11T21:12:01.352Z,81.16
2018-03-11T21:14:29.609Z,81.54
2018-03-11T21:16:58.633Z,81.66
2018-03-11T21:19:26.881Z,81.83
2018-03-11T21:21:55.897Z,82.18
2018-03-11T21:24:25.092Z,82.37
2018-03-11T21:26:54.106Z,82.49
2018-03-11T21:29:22.358Z,82.50
2018-03-11T21:31:51.382Z,82.64
2018-03-11T21:34:19.638Z,82.87
2018-03-11T21:36:47.881Z,83.75
2018-03-11T21:39:16.137Z,84.52
2018-03-11T21:41:44.385Z,84.50
2018-03-11T21:44:12.641Z,84.94
2018-03-11T21:46:40.889Z,85.32
2018-03-11T21:49:09.907Z,85.45
2018-03-11T21:51:38.150Z,85.59
2018-03-11T21:54:07.177Z,85.35
2018-03-11T21:56:35.427Z,86.07
2018-03-11T21:59:04.447Z,85.79
2018-03-11T22:01:32.694Z,85.56
2018-03-11T22:04:01.707Z,85.15
2018-03-11T22:06:29.960Z,85.26
2018-03-11T22:08:58.211Z,84.83
2018-03-11T22:11:26.462Z,86.35
2018-03-11T22:13:54.733Z,86.78
2018-03-11T22:16:22.975Z,87.08
2018-03-11T22:18:51.236Z,87.62
2018-03-11T22:23:54.765Z,87.23
2018-03-11T22:26:23.010Z,86.96
2018-03-11T22:28:51.266Z,86.99
2018-03-11T22:31:19.515Z,86.85
2018-03-11T22:33:47.772Z,86.88
2018-03-11T22:36:16.022Z,86.83
2018-03-11T22:38:44.290Z,87.11
2018-03-11T22:41:12.529Z,88.02
2018-03-11T22:43:40.778Z,88.38
2018-03-11T22:46:09.044Z,88.46
2018-03-11T22:48:38.050Z,89.65
2018-03-11T22:51:06.311Z,87.28
2018-03-11T22:53:35.387Z,84.72
2018-03-11T22:56:03.691Z,85.51
2018-03-11T22:58:31.901Z,81.95
2018-03-11T23:01:00.150Z,82.34
2018-03-11T23:03:28.397Z,83.96
2018-03-11T23:05:57.413Z,81.80
2018-03-11T23:08:25.667Z,81.09
2018-03-11T23:10:54.683Z,84.20
2018-03-11T23:13:22.925Z,84.43
2018-03-11T23:15:51.955Z,85.32
2018-03-11T23:18:20.203Z,87.38
2018-03-11T23:20:49.217Z,85.84
2018-03-11T23:23:17.461Z,85.01
2018-03-11T23:25:45.721Z,84.99
2018-03-11T23:28:13.970Z,84.43
2018-03-11T23:30:42.227Z,83.41
2018-03-11T23:33:10.466Z,84.00
2018-03-11T23:35:39.490Z,83.57
2018-03-11T23:38:07.744Z,84.31
2018-03-11T23:40:36.755Z,84.29
2018-03-11T23:43:05.002Z,83.87
2018-03-11T23:45:34.030Z,84.21
2018-03-11T23:48:02.279Z,84.26
2018-03-11T23:50:30.538Z,85.15
2018-03-11T23:52:58.785Z,85.17
2018-03-11T23:55:27.047Z,89.22
2018-03-11T23:57:55.290Z,89.93
